JAL12 RJTT-KDFW
Flight info
| Callsign | JAL12 |
|---|---|
| Flight time | N/A |
| Altitude | 33000 |
| Route | INUBO Y808 NOLAX Y814 AVBET OTR9 EMRON 43N160E 47N170E/N0494F350 50N180E 52N170W 53N160W 54N150W/N0485F370 54N140W DCT KATCH DCT YZP DCT LOKBO DCT JANEK DCT IWACK DCT ZOOMR DCT FINUT DCT LKT/N0478F390 DCT OCS DCT CEBAL DCT CHE DCT RLG DCT BRK DCT EZEEE DCT MDANO JOVEM6 |
| Aircraft | A35K/H-SDE2E3GHIJ3J4J5LM1ORWXY/LB1D1 |
Departure
| Time | 2026-05-07 02:38 |
|---|---|
| Airport | Tokyo Haneda International Airport (RJTT) |
Arrival
| Time | N/A |
|---|---|
| Airport | Dallas Fort Worth International Airport (KDFW) |
| Time | Latitude | Longitude | Altitude | Speed | Heading |
|---|---|---|---|---|---|
| 2026-05-07 02:20 | 35.54782 | 139.76523 | 29 ft | 0 kts | 150° |
| 2026-05-07 02:26 | 35.54789 | 139.76518 | 28 ft | 2 kts | 150° |
| 2026-05-07 02:26 | 35.54806 | 139.76506 | 27 ft | 3 kts | 149° |
| 2026-05-07 02:27 | 35.54822 | 139.76495 | 27 ft | 3 kts | 160° |
| 2026-05-07 02:27 | 35.54840 | 139.76490 | 27 ft | 3 kts | 189° |
| 2026-05-07 02:27 | 35.54857 | 139.76498 | 28 ft | 3 kts | 227° |
| 2026-05-07 02:27 | 35.54868 | 139.76517 | 28 ft | 3 kts | 244° |
| 2026-05-07 02:28 | 35.54875 | 139.76535 | 27 ft | 1 kts | 240° |
| 2026-05-07 02:28 | 35.54876 | 139.76536 | 27 ft | 0 kts | 239° |
| 2026-05-07 02:30 | 35.54875 | 139.76534 | 27 ft | 1 kts | 239° |
| 2026-05-07 02:30 | 35.54866 | 139.76516 | 28 ft | 4 kts | 240° |
| 2026-05-07 02:30 | 35.54855 | 139.76478 | 29 ft | 5 kts | 261° |
| 2026-05-07 02:31 | 35.54861 | 139.76445 | 29 ft | 4 kts | 293° |
| 2026-05-07 02:31 | 35.54875 | 139.76424 | 30 ft | 3 kts | 317° |
| 2026-05-07 02:31 | 35.54899 | 139.76413 | 30 ft | 4 kts | 352° |
| 2026-05-07 02:31 | 35.54939 | 139.76432 | 30 ft | 9 kts | 30° |
| 2026-05-07 02:32 | 35.55010 | 139.76490 | 30 ft | 15 kts | 34° |
| 2026-05-07 02:32 | 35.55112 | 139.76577 | 30 ft | 19 kts | 34° |
| 2026-05-07 02:32 | 35.55226 | 139.76675 | 28 ft | 21 kts | 35° |
| 2026-05-07 02:32 | 35.55345 | 139.76778 | 29 ft | 21 kts | 35° |
| 2026-05-07 02:33 | 35.55465 | 139.76881 | 30 ft | 21 kts | 35° |
| 2026-05-07 02:33 | 35.55588 | 139.76987 | 29 ft | 22 kts | 35° |
| 2026-05-07 02:33 | 35.55713 | 139.77095 | 31 ft | 21 kts | 35° |
| 2026-05-07 02:33 | 35.55818 | 139.77185 | 28 ft | 21 kts | 34° |
| 2026-05-07 02:34 | 35.55922 | 139.77289 | 30 ft | 19 kts | 50° |
| 2026-05-07 02:34 | 35.55993 | 139.77432 | 28 ft | 21 kts | 60° |
| 2026-05-07 02:34 | 35.56066 | 139.77585 | 29 ft | 21 kts | 59° |
| 2026-05-07 02:34 | 35.56138 | 139.77737 | 30 ft | 21 kts | 59° |
| 2026-05-07 02:35 | 35.56210 | 139.77888 | 31 ft | 20 kts | 60° |
| 2026-05-07 02:35 | 35.56282 | 139.78041 | 31 ft | 21 kts | 59° |
| 2026-05-07 02:35 | 35.56356 | 139.78197 | 31 ft | 21 kts | 60° |
| 2026-05-07 02:35 | 35.56432 | 139.78356 | 31 ft | 22 kts | 59° |
| 2026-05-07 02:36 | 35.56507 | 139.78515 | 31 ft | 20 kts | 59° |
| 2026-05-07 02:36 | 35.56552 | 139.78608 | 34 ft | 9 kts | 60° |
| 2026-05-07 02:36 | 35.56565 | 139.78656 | 36 ft | 4 kts | 96° |
| 2026-05-07 02:36 | 35.56551 | 139.78677 | 36 ft | 3 kts | 137° |
| 2026-05-07 02:37 | 35.56525 | 139.78698 | 36 ft | 10 kts | 148° |
| 2026-05-07 02:37 | 35.56295 | 139.78862 | 33 ft | 69 kts | 150° |
| 2026-05-07 02:37 | 35.55720 | 139.79270 | 33 ft | 121 kts | 149° |
| 2026-05-07 02:37 | 35.54857 | 139.79887 | 46 ft | 163 kts | 150° |
| 2026-05-07 02:38 | 35.53944 | 139.80566 | 680 ft | 149 kts | 149° |
| 2026-05-07 02:38 | 35.53094 | 139.81399 | 912 ft | 168 kts | 140° |
| 2026-05-07 02:38 | 35.52192 | 139.82464 | 1082 ft | 191 kts | 137° |
| 2026-05-07 02:38 | 35.51226 | 139.83699 | 1328 ft | 214 kts | 135° |
| 2026-05-07 02:39 | 35.50160 | 139.85121 | 1651 ft | 236 kts | 135° |
| 2026-05-07 02:39 | 35.49026 | 139.86596 | 2198 ft | 238 kts | 136° |
| 2026-05-07 02:39 | 35.47871 | 139.88063 | 2796 ft | 241 kts | 137° |
| 2026-05-07 02:39 | 35.46696 | 139.89554 | 3365 ft | 244 kts | 135° |
| 2026-05-07 02:40 | 35.45763 | 139.91319 | 3888 ft | 252 kts | 113° |
| 2026-05-07 02:40 | 35.45534 | 139.93471 | 4413 ft | 261 kts | 84° |
| 2026-05-07 02:40 | 35.46186 | 139.95559 | 4897 ft | 268 kts | 55° |
| 2026-05-07 02:40 | 35.47400 | 139.97312 | 5413 ft | 272 kts | 46° |
| 2026-05-07 02:41 | 35.48891 | 139.98749 | 5905 ft | 275 kts | 25° |
| 2026-05-07 02:41 | 35.50733 | 139.99344 | 6257 ft | 279 kts | 356° |
| 2026-05-07 02:41 | 35.52013 | 139.99153 | 6467 ft | 281 kts | 342° |
| 2026-05-07 02:41 | 35.53916 | 139.98514 | 6923 ft | 286 kts | 339° |
| 2026-05-07 02:42 | 35.55828 | 139.97819 | 7494 ft | 287 kts | 339° |
| 2026-05-07 02:42 | 35.57754 | 139.97132 | 8049 ft | 290 kts | 340° |
| 2026-05-07 02:42 | 35.59707 | 139.96454 | 8616 ft | 294 kts | 341° |
| 2026-05-07 02:42 | 35.61751 | 139.96099 | 9184 ft | 301 kts | 356° |
| 2026-05-07 02:43 | 35.63851 | 139.96109 | 9790 ft | 302 kts | 355° |
| 2026-05-07 02:43 | 35.65972 | 139.96057 | 10244 ft | 309 kts | 354° |
| 2026-05-07 02:43 | 35.68169 | 139.95987 | 10478 ft | 323 kts | 354° |
| 2026-05-07 02:43 | 35.70467 | 139.95923 | 10713 ft | 337 kts | 355° |
| 2026-05-07 02:44 | 35.72857 | 139.95864 | 10945 ft | 351 kts | 355° |
| 2026-05-07 02:44 | 35.75348 | 139.95808 | 11173 ft | 364 kts | 355° |
| 2026-05-07 02:44 | 35.77925 | 139.95752 | 11390 ft | 377 kts | 355° |
| 2026-05-07 02:44 | 35.80586 | 139.95696 | 11610 ft | 389 kts | 355° |
| 2026-05-07 02:45 | 35.83325 | 139.95640 | 11919 ft | 397 kts | 355° |
| 2026-05-07 02:45 | 35.86103 | 139.95585 | 12353 ft | 401 kts | 355° |
| 2026-05-07 02:45 | 35.88908 | 139.95529 | 12784 ft | 405 kts | 355° |
| 2026-05-07 02:45 | 35.91734 | 139.95471 | 13235 ft | 408 kts | 355° |
| 2026-05-07 02:46 | 35.94587 | 139.95413 | 13707 ft | 411 kts | 355° |
| 2026-05-07 02:46 | 35.97417 | 139.95355 | 14129 ft | 413 kts | 355° |
| 2026-05-07 02:46 | 36.00306 | 139.95295 | 14527 ft | 416 kts | 355° |
| 2026-05-07 02:46 | 36.03249 | 139.95234 | 14947 ft | 419 kts | 355° |
| 2026-05-07 02:47 | 36.06134 | 139.95175 | 15352 ft | 421 kts | 355° |
| 2026-05-07 02:47 | 36.09072 | 139.95119 | 15773 ft | 424 kts | 356° |
| 2026-05-07 02:47 | 36.12035 | 139.95286 | 16168 ft | 429 kts | 4° |
| 2026-05-07 02:47 | 36.14966 | 139.96099 | 16605 ft | 435 kts | 18° |
| 2026-05-07 02:48 | 36.17645 | 139.97859 | 17018 ft | 441 kts | 36° |
| 2026-05-07 02:48 | 36.19799 | 140.00571 | 17379 ft | 446 kts | 54° |
| 2026-05-07 02:48 | 36.21201 | 140.03986 | 17743 ft | 447 kts | 73° |
| 2026-05-07 02:48 | 36.21714 | 140.07773 | 18093 ft | 447 kts | 92° |
| 2026-05-07 02:49 | 36.21288 | 140.11553 | 18419 ft | 444 kts | 110° |
| 2026-05-07 02:49 | 36.20005 | 140.14996 | 18726 ft | 440 kts | 125° |
| 2026-05-07 02:49 | 36.18268 | 140.18101 | 19122 ft | 437 kts | 130° |
| 2026-05-07 02:49 | 36.16444 | 140.21100 | 19545 ft | 437 kts | 130° |
| 2026-05-07 02:50 | 36.14661 | 140.24159 | 19909 ft | 440 kts | 128° |
| 2026-05-07 02:50 | 36.12965 | 140.27323 | 20256 ft | 442 kts | 126° |
| 2026-05-07 02:50 | 36.11354 | 140.30574 | 20597 ft | 445 kts | 124° |
| 2026-05-07 02:50 | 36.09794 | 140.33898 | 20937 ft | 447 kts | 123° |
| 2026-05-07 02:51 | 36.08265 | 140.37258 | 21285 ft | 450 kts | 123° |
| 2026-05-07 02:51 | 36.06737 | 140.40652 | 21559 ft | 453 kts | 123° |
| 2026-05-07 02:51 | 36.05203 | 140.44062 | 21897 ft | 455 kts | 123° |
| 2026-05-07 02:51 | 36.03658 | 140.47484 | 22237 ft | 457 kts | 123° |
| 2026-05-07 02:52 | 36.02122 | 140.50872 | 22570 ft | 458 kts | 123° |
| 2026-05-07 02:52 | 36.00555 | 140.54310 | 22904 ft | 460 kts | 123° |
| 2026-05-07 02:52 | 35.98978 | 140.57761 | 23239 ft | 462 kts | 123° |
| 2026-05-07 02:52 | 35.97392 | 140.61223 | 23563 ft | 464 kts | 123° |
| 2026-05-07 02:53 | 35.95795 | 140.64704 | 23831 ft | 466 kts | 123° |
| 2026-05-07 02:53 | 35.94194 | 140.68192 | 24051 ft | 469 kts | 123° |
| 2026-05-07 02:53 | 35.92578 | 140.71707 | 24297 ft | 472 kts | 123° |
| 2026-05-07 02:53 | 35.90956 | 140.75233 | 24566 ft | 473 kts | 123° |
| 2026-05-07 02:54 | 35.89326 | 140.78773 | 24841 ft | 475 kts | 123° |
| 2026-05-07 02:54 | 35.87687 | 140.82329 | 25095 ft | 477 kts | 123° |
| 2026-05-07 02:54 | 35.86040 | 140.85900 | 25305 ft | 481 kts | 123° |
| 2026-05-07 02:54 | 35.84382 | 140.89490 | 25578 ft | 482 kts | 123° |
| 2026-05-07 02:55 | 35.82716 | 140.93094 | 25846 ft | 484 kts | 123° |
| 2026-05-07 02:55 | 35.81044 | 140.96707 | 26125 ft | 486 kts | 123° |
| 2026-05-07 02:55 | 35.79366 | 141.00328 | 26404 ft | 488 kts | 123° |
| 2026-05-07 02:55 | 35.77679 | 141.03967 | 26678 ft | 490 kts | 123° |
| 2026-05-07 02:56 | 35.75984 | 141.07618 | 26948 ft | 492 kts | 123° |
| 2026-05-07 02:56 | 35.74282 | 141.11280 | 27255 ft | 493 kts | 123° |
| 2026-05-07 02:56 | 35.72574 | 141.14950 | 27524 ft | 496 kts | 123° |
| 2026-05-07 02:56 | 35.70855 | 141.18641 | 27795 ft | 498 kts | 122° |
| 2026-05-07 02:57 | 35.69127 | 141.22345 | 28080 ft | 500 kts | 122° |
| 2026-05-07 02:57 | 35.67392 | 141.26062 | 28373 ft | 501 kts | 122° |
| 2026-05-07 02:57 | 35.65655 | 141.29781 | 28649 ft | 503 kts | 123° |
| 2026-05-07 02:57 | 35.63929 | 141.33469 | 28961 ft | 504 kts | 123° |
| 2026-05-07 02:58 | 35.62181 | 141.37202 | 29298 ft | 504 kts | 122° |
| 2026-05-07 02:58 | 35.60411 | 141.40978 | 29721 ft | 502 kts | 122° |
| 2026-05-07 02:58 | 35.58692 | 141.44641 | 30117 ft | 501 kts | 122° |
| 2026-05-07 02:58 | 35.56956 | 141.48337 | 30446 ft | 499 kts | 122° |
| 2026-05-07 02:59 | 35.55216 | 141.52037 | 30634 ft | 502 kts | 123° |
| 2026-05-07 02:59 | 35.53451 | 141.55779 | 30679 ft | 508 kts | 123° |
| 2026-05-07 02:59 | 35.49877 | 141.63345 | 30866 ft | 517 kts | 123° |
| 2026-05-07 03:00 | 35.46351 | 141.71137 | 31085 ft | 527 kts | 117° |
| 2026-05-07 03:00 | 35.45078 | 141.75362 | 31294 ft | 531 kts | 108° |
| 2026-05-07 03:00 | 35.44328 | 141.79840 | 31321 ft | 541 kts | 100° |
| 2026-05-07 03:01 | 35.43904 | 141.89097 | 31780 ft | 543 kts | 92° |
| 2026-05-07 03:01 | 35.43917 | 141.93669 | 32080 ft | 542 kts | 91° |
| 2026-05-07 03:01 | 35.43956 | 141.98293 | 32313 ft | 542 kts | 91° |
| 2026-05-07 03:02 | 35.43985 | 142.02920 | 32553 ft | 542 kts | 92° |
| 2026-05-07 03:02 | 35.43991 | 142.07533 | 32789 ft | 542 kts | 92° |
| 2026-05-07 03:02 | 35.43975 | 142.12160 | 32978 ft | 542 kts | 92° |
| 2026-05-07 03:02 | 35.43942 | 142.16800 | 33032 ft | 547 kts | 92° |
| 2026-05-07 03:03 | 35.43850 | 142.26137 | 33278 ft | 545 kts | 93° |
| 2026-05-07 03:03 | 35.43799 | 142.30788 | 33456 ft | 548 kts | 93° |
| 2026-05-07 03:03 | 35.43746 | 142.35476 | 33662 ft | 548 kts | 93° |
| 2026-05-07 03:04 | 35.43693 | 142.40094 | 34000 ft | 546 kts | 93° |
| 2026-05-07 03:04 | 35.43640 | 142.44752 | 34242 ft | 546 kts | 93° |
| 2026-05-07 03:04 | 35.43585 | 142.49419 | 34439 ft | 546 kts | 93° |
| 2026-05-07 03:04 | 35.43528 | 142.54079 | 34629 ft | 546 kts | 93° |
| 2026-05-07 03:05 | 35.43473 | 142.58741 | 34806 ft | 547 kts | 93° |
| 2026-05-07 03:05 | 35.43414 | 142.63399 | 34984 ft | 547 kts | 93° |
| 2026-05-07 03:05 | 35.43282 | 142.72792 | 35045 ft | 553 kts | 93° |
| 2026-05-07 03:06 | 35.43145 | 142.82219 | 35040 ft | 553 kts | 94° |
| 2026-05-07 03:06 | 35.43002 | 142.91620 | 35046 ft | 556 kts | 94° |
| 2026-05-07 03:07 | 35.42851 | 143.01103 | 35042 ft | 557 kts | 94° |
| 2026-05-07 03:07 | 35.42692 | 143.10607 | 35045 ft | 558 kts | 94° |
| 2026-05-07 03:08 | 35.42526 | 143.20114 | 35048 ft | 558 kts | 94° |
| 2026-05-07 03:08 | 35.42480 | 143.29634 | 35052 ft | 559 kts | 86° |
| 2026-05-07 03:09 | 35.44268 | 143.38883 | 35048 ft | 559 kts | 69° |
| 2026-05-07 03:09 | 35.47198 | 143.47729 | 35052 ft | 560 kts | 66° |
| 2026-05-07 03:10 | 35.50304 | 143.56501 | 35060 ft | 560 kts | 65° |
| 2026-05-07 03:10 | 35.53396 | 143.65279 | 35056 ft | 560 kts | 66° |
| 2026-05-07 03:11 | 35.56429 | 143.74026 | 35055 ft | 560 kts | 66° |
| 2026-05-07 03:11 | 35.59456 | 143.82829 | 35058 ft | 557 kts | 66° |
| 2026-05-07 03:12 | 35.62460 | 143.91596 | 35056 ft | 556 kts | 66° |
| 2026-05-07 03:12 | 35.65455 | 144.00353 | 35056 ft | 556 kts | 66° |
| 2026-05-07 03:13 | 35.68447 | 144.09126 | 35058 ft | 556 kts | 66° |
| 2026-05-07 03:13 | 35.71429 | 144.17911 | 35047 ft | 558 kts | 66° |
| 2026-05-07 03:14 | 35.74435 | 144.26781 | 35066 ft | 563 kts | 66° |
| 2026-05-07 03:15 | 35.78953 | 144.40128 | 35060 ft | 563 kts | 66° |
| 2026-05-07 03:15 | 35.81937 | 144.48987 | 35061 ft | 563 kts | 66° |
| 2026-05-07 03:16 | 35.84926 | 144.57891 | 35064 ft | 561 kts | 66° |
| 2026-05-07 03:16 | 35.87903 | 144.66788 | 35060 ft | 561 kts | 66° |
| 2026-05-07 03:17 | 35.90873 | 144.75688 | 35079 ft | 561 kts | 66° |
| 2026-05-07 03:17 | 35.93833 | 144.84585 | 35070 ft | 558 kts | 66° |
| 2026-05-07 03:18 | 35.96769 | 144.93438 | 35065 ft | 557 kts | 66° |
| 2026-05-07 03:18 | 35.99701 | 145.02300 | 35076 ft | 557 kts | 66° |
| 2026-05-07 03:19 | 36.02602 | 145.11098 | 35071 ft | 556 kts | 66° |
| 2026-05-07 03:19 | 36.05511 | 145.19947 | 35070 ft | 555 kts | 66° |
| 2026-05-07 03:20 | 36.08411 | 145.28793 | 35071 ft | 555 kts | 66° |
| 2026-05-07 03:20 | 36.11308 | 145.37657 | 35073 ft | 556 kts | 66° |
| 2026-05-07 03:21 | 36.14307 | 145.46479 | 35073 ft | 555 kts | 60° |
| 2026-05-07 03:21 | 36.17979 | 145.54807 | 35081 ft | 544 kts | 59° |
| 2026-05-07 03:22 | 36.21691 | 145.62848 | 35070 ft | 534 kts | 58° |
| 2026-05-07 03:22 | 36.25386 | 145.70807 | 35079 ft | 533 kts | 58° |
| 2026-05-07 03:23 | 36.29068 | 145.78783 | 35095 ft | 533 kts | 59° |
| 2026-05-07 03:23 | 36.32731 | 145.86759 | 35075 ft | 531 kts | 59° |
| 2026-05-07 03:24 | 36.36379 | 145.94732 | 35087 ft | 531 kts | 59° |
| 2026-05-07 03:24 | 36.39994 | 146.02650 | 35082 ft | 531 kts | 59° |
| 2026-05-07 03:25 | 36.43634 | 146.10643 | 35080 ft | 532 kts | 59° |
| 2026-05-07 03:25 | 36.47270 | 146.18643 | 35081 ft | 532 kts | 59° |
| 2026-05-07 03:26 | 36.50908 | 146.26668 | 35086 ft | 532 kts | 59° |
| 2026-05-07 03:26 | 36.54539 | 146.34696 | 35092 ft | 532 kts | 59° |
| 2026-05-07 03:27 | 36.57544 | 146.41354 | 35088 ft | 531 kts | 59° |
| 2026-05-07 03:27 | 36.61155 | 146.49374 | 35094 ft | 531 kts | 59° |
| 2026-05-07 03:28 | 36.64759 | 146.57398 | 35095 ft | 531 kts | 59° |
| 2026-05-07 03:28 | 36.68359 | 146.65432 | 35100 ft | 531 kts | 59° |
| 2026-05-07 03:29 | 36.71955 | 146.73476 | 35098 ft | 531 kts | 59° |
| 2026-05-07 03:29 | 36.75545 | 146.81529 | 35102 ft | 531 kts | 59° |
| 2026-05-07 03:30 | 36.79135 | 146.89599 | 35097 ft | 531 kts | 59° |
| 2026-05-07 03:30 | 36.82710 | 146.97657 | 35102 ft | 531 kts | 59° |
| 2026-05-07 03:31 | 36.86284 | 147.05730 | 35111 ft | 531 kts | 59° |
| 2026-05-07 03:31 | 36.89843 | 147.13790 | 35106 ft | 534 kts | 59° |
| 2026-05-07 03:32 | 36.93426 | 147.21925 | 35107 ft | 535 kts | 59° |
| 2026-05-07 03:32 | 36.97015 | 147.30096 | 35107 ft | 535 kts | 59° |
| 2026-05-07 03:33 | 37.00594 | 147.38263 | 35112 ft | 535 kts | 59° |
| 2026-05-07 03:33 | 37.04167 | 147.46436 | 35107 ft | 535 kts | 59° |
| 2026-05-07 03:34 | 37.07738 | 147.54626 | 35111 ft | 535 kts | 59° |
| 2026-05-07 03:34 | 37.11301 | 147.62816 | 35111 ft | 535 kts | 59° |
| 2026-05-07 03:35 | 37.14834 | 147.70960 | 35118 ft | 536 kts | 59° |
| 2026-05-07 03:35 | 37.18390 | 147.79177 | 35114 ft | 536 kts | 59° |
| 2026-05-07 03:36 | 37.21939 | 147.87398 | 35115 ft | 536 kts | 59° |
| 2026-05-07 03:36 | 37.25481 | 147.95624 | 35117 ft | 536 kts | 59° |
| 2026-05-07 03:37 | 37.29022 | 148.03871 | 35118 ft | 536 kts | 59° |
| 2026-05-07 03:37 | 37.32559 | 148.12125 | 35118 ft | 536 kts | 59° |
| 2026-05-07 03:38 | 37.36090 | 148.20390 | 35134 ft | 536 kts | 59° |
| 2026-05-07 03:38 | 37.39616 | 148.28664 | 35124 ft | 537 kts | 59° |
| 2026-05-07 03:39 | 37.43141 | 148.36956 | 35121 ft | 537 kts | 59° |
| 2026-05-07 03:39 | 37.46659 | 148.45252 | 35121 ft | 537 kts | 59° |
| 2026-05-07 03:40 | 37.50173 | 148.53563 | 35121 ft | 538 kts | 59° |
| 2026-05-07 03:40 | 37.53662 | 148.61833 | 35125 ft | 538 kts | 59° |
| 2026-05-07 03:41 | 37.57174 | 148.70180 | 35125 ft | 540 kts | 59° |
| 2026-05-07 03:41 | 37.60685 | 148.78548 | 35129 ft | 540 kts | 59° |
| 2026-05-07 03:42 | 37.64196 | 148.86937 | 35124 ft | 541 kts | 59° |
| 2026-05-07 03:42 | 37.67703 | 148.95340 | 35124 ft | 541 kts | 59° |
| 2026-05-07 03:43 | 37.71208 | 149.03760 | 35130 ft | 541 kts | 60° |
| 2026-05-07 03:43 | 37.74706 | 149.12187 | 35130 ft | 541 kts | 59° |
| 2026-05-07 03:44 | 37.78176 | 149.20564 | 35126 ft | 541 kts | 59° |
| 2026-05-07 03:44 | 37.81665 | 149.29013 | 35127 ft | 541 kts | 59° |
| 2026-05-07 03:45 | 37.85144 | 149.37459 | 35130 ft | 541 kts | 60° |
| 2026-05-07 03:45 | 37.88616 | 149.45912 | 35131 ft | 541 kts | 60° |
| 2026-05-07 03:46 | 37.92088 | 149.54387 | 35130 ft | 542 kts | 60° |
| 2026-05-07 03:46 | 37.95553 | 149.62869 | 35136 ft | 542 kts | 60° |
| 2026-05-07 03:47 | 37.99029 | 149.71397 | 35128 ft | 545 kts | 60° |
| 2026-05-07 03:47 | 38.02489 | 149.79912 | 35134 ft | 542 kts | 60° |
| 2026-05-07 03:48 | 38.05937 | 149.88422 | 35128 ft | 542 kts | 60° |
| 2026-05-07 03:48 | 38.09362 | 149.96892 | 35128 ft | 543 kts | 59° |
| 2026-05-07 03:49 | 38.13412 | 150.04901 | 35129 ft | 538 kts | 51° |
| 2026-05-07 03:49 | 38.17771 | 150.12641 | 35148 ft | 538 kts | 50° |
| 2026-05-07 03:50 | 38.22180 | 150.20353 | 35131 ft | 539 kts | 50° |
| 2026-05-07 03:50 | 38.26589 | 150.28094 | 35127 ft | 540 kts | 50° |
| 2026-05-07 03:51 | 38.30980 | 150.35849 | 35133 ft | 540 kts | 50° |
| 2026-05-07 03:51 | 38.35366 | 150.43625 | 35133 ft | 540 kts | 50° |
| 2026-05-07 03:52 | 38.39718 | 150.51359 | 35128 ft | 540 kts | 50° |
| 2026-05-07 03:52 | 38.44091 | 150.59148 | 35132 ft | 540 kts | 50° |
| 2026-05-07 03:53 | 38.48461 | 150.66948 | 35135 ft | 540 kts | 50° |
| 2026-05-07 03:53 | 38.52823 | 150.74754 | 35132 ft | 540 kts | 50° |
| 2026-05-07 03:54 | 38.57179 | 150.82568 | 35159 ft | 540 kts | 50° |
| 2026-05-07 03:54 | 38.61530 | 150.90392 | 35140 ft | 541 kts | 50° |
| 2026-05-07 03:55 | 38.65883 | 150.98238 | 35137 ft | 541 kts | 50° |
| 2026-05-07 03:55 | 38.70233 | 151.06099 | 35148 ft | 541 kts | 50° |